sensor_id;sensor_type;location;lat;lon;timestamp;P1;durP1;ratioP1;P2;durP2;ratioP2
75924;SDS011;64604;44.752;37.674;2022-12-04T00:00:35;10.32;;;7.85;;
75924;SDS011;64604;44.752;37.674;2022-12-04T00:01:36;9.50;;;7.90;;
75924;SDS011;64604;44.752;37.674;2022-12-04T00:02:38;9.48;;;7.13;;
75924;SDS011;64604;44.752;37.674;2022-12-04T00:03:40;9.43;;;7.88;;
75924;SDS011;64604;44.752;37.674;2022-12-04T00:04:41;13.27;;;7.72;;
75924;SDS011;64604;44.752;37.674;2022-12-04T00:05:43;9.77;;;7.72;;
75924;SDS011;64604;44.752;37.674;2022-12-04T00:06:44;11.25;;;8.07;;
75924;SDS011;64604;44.752;37.674;2022-12-04T00:07:45;10.63;;;7.60;;
75924;SDS011;64604;44.752;37.674;2022-12-04T00:08:47;11.27;;;7.78;;
75924;SDS011;64604;44.752;37.674;2022-12-04T00:09:49;12.20;;;7.40;;
75924;SDS011;64604;44.752;37.674;2022-12-04T00:10:50;9.05;;;7.13;;
75924;SDS011;64604;44.752;37.674;2022-12-04T00:11:52;9.27;;;7.13;;
75924;SDS011;64604;44.752;37.674;2022-12-04T00:12:53;8.52;;;7.15;;
75924;SDS011;64604;44.752;37.674;2022-12-04T00:13:55;10.75;;;7.78;;
75924;SDS011;64604;44.752;37.674;2022-12-04T00:14:57;8.98;;;7.30;;
75924;SDS011;64604;44.752;37.674;2022-12-04T00:15:59;9.68;;;7.63;;
75924;SDS011;64604;44.752;37.674;2022-12-04T00:17:01;10.40;;;7.22;;
75924;SDS011;64604;44.752;37.674;2022-12-04T00:18:02;8.48;;;7.03;;
75924;SDS011;64604;44.752;37.674;2022-12-04T00:19:03;10.38;;;6.93;;
75924;SDS011;64604;44.752;37.674;2022-12-04T00:20:05;8.82;;;7.18;;
75924;SDS011;64604;44.752;37.674;2022-12-04T00:21:08;9.25;;;6.70;;
75924;SDS011;64604;44.752;37.674;2022-12-04T00:22:11;8.50;;;6.97;;
75924;SDS011;64604;44.752;37.674;2022-12-04T00:23:12;8.77;;;6.25;;
75924;SDS011;64604;44.752;37.674;2022-12-04T00:24:14;8.55;;;6.50;;
75924;SDS011;64604;44.752;37.674;2022-12-04T00:25:15;8.40;;;6.32;;
75924;SDS011;64604;44.752;37.674;2022-12-04T00:26:18;7.50;;;6.05;;
75924;SDS011;64604;44.752;37.674;2022-12-04T00:27:24;9.55;;;6.47;;
75924;SDS011;64604;44.752;37.674;2022-12-04T00:28:25;8.35;;;6.47;;
75924;SDS011;64604;44.752;37.674;2022-12-04T00:29:26;8.63;;;6.45;;
75924;SDS011;64604;44.752;37.674;2022-12-04T00:30:28;10.50;;;6.65;;
75924;SDS011;64604;44.752;37.674;2022-12-04T00:31:29;8.10;;;6.63;;
75924;SDS011;64604;44.752;37.674;2022-12-04T00:32:31;8.40;;;6.53;;
75924;SDS011;64604;44.752;37.674;2022-12-04T00:33:32;8.00;;;6.00;;
75924;SDS011;64604;44.752;37.674;2022-12-04T00:34:34;10.00;;;6.85;;
75924;SDS011;64604;44.752;37.674;2022-12-04T00:35:35;8.88;;;6.70;;
75924;SDS011;64604;44.752;37.674;2022-12-04T00:36:37;10.10;;;6.53;;
75924;SDS011;64604;44.752;37.674;2022-12-04T00:37:38;9.68;;;6.38;;
75924;SDS011;64604;44.752;37.674;2022-12-04T00:38:40;9.27;;;6.45;;
75924;SDS011;64604;44.752;37.674;2022-12-04T00:39:42;7.13;;;6.22;;
75924;SDS011;64604;44.752;37.674;2022-12-04T00:40:50;7.75;;;6.78;;
75924;SDS011;64604;44.752;37.674;2022-12-04T00:41:52;8.38;;;6.28;;
75924;SDS011;64604;44.752;37.674;2022-12-04T00:42:53;8.45;;;6.53;;
75924;SDS011;64604;44.752;37.674;2022-12-04T00:43:54;8.13;;;6.07;;
75924;SDS011;64604;44.752;37.674;2022-12-04T00:44:56;6.82;;;5.82;;
75924;SDS011;64604;44.752;37.674;2022-12-04T00:45:57;8.20;;;6.10;;
75924;SDS011;64604;44.752;37.674;2022-12-04T00:46:59;7.07;;;6.00;;
75924;SDS011;64604;44.752;37.674;2022-12-04T00:48:00;8.15;;;5.57;;
75924;SDS011;64604;44.752;37.674;2022-12-04T00:49:01;8.07;;;5.60;;
75924;SDS011;64604;44.752;37.674;2022-12-04T00:50:03;9.73;;;5.70;;
75924;SDS011;64604;44.752;37.674;2022-12-04T00:51:07;8.27;;;5.85;;
75924;SDS011;64604;44.752;37.674;2022-12-04T00:52:10;6.75;;;5.68;;
75924;SDS011;64604;44.752;37.674;2022-12-04T00:53:12;6.57;;;5.45;;
75924;SDS011;64604;44.752;37.674;2022-12-04T00:54:13;6.65;;;5.35;;
75924;SDS011;64604;44.752;37.674;2022-12-04T00:55:15;6.32;;;5.53;;
75924;SDS011;64604;44.752;37.674;2022-12-04T00:56:18;6.18;;;5.28;;
75924;SDS011;64604;44.752;37.674;2022-12-04T00:57:22;8.57;;;5.10;;
75924;SDS011;64604;44.752;37.674;2022-12-04T00:58:24;7.65;;;5.28;;
75924;SDS011;64604;44.752;37.674;2022-12-04T00:59:25;5.70;;;5.10;;
75924;SDS011;64604;44.752;37.674;2022-12-04T01:00:26;7.13;;;5.30;;
75924;SDS011;64604;44.752;37.674;2022-12-04T01:01:29;6.47;;;5.25;;
75924;SDS011;64604;44.752;37.674;2022-12-04T01:02:30;6.93;;;5.78;;
75924;SDS011;64604;44.752;37.674;2022-12-04T01:03:32;7.97;;;5.88;;
75924;SDS011;64604;44.752;37.674;2022-12-04T01:04:34;8.07;;;6.55;;
75924;SDS011;64604;44.752;37.674;2022-12-04T01:05:43;6.28;;;5.57;;
75924;SDS011;64604;44.752;37.674;2022-12-04T01:06:45;5.90;;;5.00;;
75924;SDS011;64604;44.752;37.674;2022-12-04T01:07:46;7.05;;;6.03;;
75924;SDS011;64604;44.752;37.674;2022-12-04T01:08:48;6.80;;;5.85;;
75924;SDS011;64604;44.752;37.674;2022-12-04T01:09:50;6.07;;;5.30;;
75924;SDS011;64604;44.752;37.674;2022-12-04T01:10:52;5.90;;;5.30;;
75924;SDS011;64604;44.752;37.674;2022-12-04T01:11:53;5.57;;;4.78;;
75924;SDS011;64604;44.752;37.674;2022-12-04T01:12:54;5.93;;;5.28;;
75924;SDS011;64604;44.752;37.674;2022-12-04T01:13:56;5.13;;;4.63;;
75924;SDS011;64604;44.752;37.674;2022-12-04T01:14:58;6.03;;;5.32;;
75924;SDS011;64604;44.752;37.674;2022-12-04T01:16:00;6.05;;;5.35;;
75924;SDS011;64604;44.752;37.674;2022-12-04T01:17:01;7.47;;;5.47;;
75924;SDS011;64604;44.752;37.674;2022-12-04T01:18:02;7.70;;;5.85;;
75924;SDS011;64604;44.752;37.674;2022-12-04T01:19:05;6.65;;;5.38;;
75924;SDS011;64604;44.752;37.674;2022-12-04T01:20:08;8.40;;;5.72;;
75924;SDS011;64604;44.752;37.674;2022-12-04T01:21:11;8.18;;;5.93;;
75924;SDS011;64604;44.752;37.674;2022-12-04T01:22:12;6.30;;;5.38;;
75924;SDS011;64604;44.752;37.674;2022-12-04T01:23:13;6.13;;;5.28;;
75924;SDS011;64604;44.752;37.674;2022-12-04T01:24:15;5.88;;;5.22;;
75924;SDS011;64604;44.752;37.674;2022-12-04T01:25:16;6.63;;;5.22;;
75924;SDS011;64604;44.752;37.674;2022-12-04T01:26:18;6.15;;;5.43;;
75924;SDS011;64604;44.752;37.674;2022-12-04T01:27:19;8.18;;;5.60;;
75924;SDS011;64604;44.752;37.674;2022-12-04T01:28:21;6.20;;;5.60;;
75924;SDS011;64604;44.752;37.674;2022-12-04T01:29:23;7.07;;;5.70;;
75924;SDS011;64604;44.752;37.674;2022-12-04T01:30:24;6.45;;;5.78;;
75924;SDS011;64604;44.752;37.674;2022-12-04T01:31:26;6.05;;;5.38;;
75924;SDS011;64604;44.752;37.674;2022-12-04T01:32:27;6.70;;;5.85;;
75924;SDS011;64604;44.752;37.674;2022-12-04T01:33:29;6.70;;;5.50;;
75924;SDS011;64604;44.752;37.674;2022-12-04T01:34:32;6.20;;;5.53;;
75924;SDS011;64604;44.752;37.674;2022-12-04T01:35:33;6.68;;;5.15;;
75924;SDS011;64604;44.752;37.674;2022-12-04T01:36:34;7.57;;;5.38;;
75924;SDS011;64604;44.752;37.674;2022-12-04T01:37:36;6.15;;;5.45;;
75924;SDS011;64604;44.752;37.674;2022-12-04T01:38:37;8.57;;;6.65;;
75924;SDS011;64604;44.752;37.674;2022-12-04T01:39:39;7.63;;;5.03;;
75924;SDS011;64604;44.752;37.674;2022-12-04T01:40:42;5.13;;;4.63;;
75924;SDS011;64604;44.752;37.674;2022-12-04T01:41:44;5.20;;;4.47;;
75924;SDS011;64604;44.752;37.674;2022-12-04T01:42:45;5.47;;;4.50;;
75924;SDS011;64604;44.752;37.674;2022-12-04T01:44:06;4.80;;;4.30;;
75924;SDS011;64604;44.752;37.674;2022-12-04T01:46:38;5.63;;;4.50;;
75924;SDS011;64604;44.752;37.674;2022-12-04T01:47:40;4.95;;;4.00;;
75924;SDS011;64604;44.752;37.674;2022-12-04T01:49:49;5.20;;;4.28;;
75924;SDS011;64604;44.752;37.674;2022-12-04T01:50:53;4.35;;;3.95;;
75924;SDS011;64604;44.752;37.674;2022-12-04T01:51:59;4.00;;;3.60;;
75924;SDS011;64604;44.752;37.674;2022-12-04T01:53:03;6.00;;;4.15;;
75924;SDS011;64604;44.752;37.674;2022-12-04T01:54:06;5.25;;;4.47;;
75924;SDS011;64604;44.752;37.674;2022-12-04T01:55:10;4.53;;;4.03;;
75924;SDS011;64604;44.752;37.674;2022-12-04T01:56:14;5.18;;;4.40;;
75924;SDS011;64604;44.752;37.674;2022-12-04T01:57:18;4.55;;;4.07;;
75924;SDS011;64604;44.752;37.674;2022-12-04T01:58:22;4.57;;;4.18;;
75924;SDS011;64604;44.752;37.674;2022-12-04T01:59:31;4.90;;;4.40;;
75924;SDS011;64604;44.752;37.674;2022-12-04T02:00:35;4.53;;;4.10;;
75924;SDS011;64604;44.752;37.674;2022-12-04T02:01:41;4.70;;;4.22;;
75924;SDS011;64604;44.752;37.674;2022-12-04T02:02:49;5.57;;;5.00;;
75924;SDS011;64604;44.752;37.674;2022-12-04T02:03:50;5.40;;;4.90;;
75924;SDS011;64604;44.752;37.674;2022-12-04T02:04:51;5.63;;;4.97;;
75924;SDS011;64604;44.752;37.674;2022-12-04T02:05:54;5.85;;;5.03;;
75924;SDS011;64604;44.752;37.674;2022-12-04T02:06:55;5.65;;;5.05;;
75924;SDS011;64604;44.752;37.674;2022-12-04T02:07:57;6.22;;;5.45;;
75924;SDS011;64604;44.752;37.674;2022-12-04T02:09:01;5.65;;;5.15;;
75924;SDS011;64604;44.752;37.674;2022-12-04T02:10:03;5.05;;;4.47;;
75924;SDS011;64604;44.752;37.674;2022-12-04T02:13:52;6.00;;;4.65;;
75924;SDS011;64604;44.752;37.674;2022-12-04T02:15:20;5.60;;;5.05;;
75924;SDS011;64604;44.752;37.674;2022-12-04T02:16:41;6.38;;;5.22;;
75924;SDS011;64604;44.752;37.674;2022-12-04T02:20:06;6.30;;;5.30;;
75924;SDS011;64604;44.752;37.674;2022-12-04T02:21:20;6.20;;;5.40;;
75924;SDS011;64604;44.752;37.674;2022-12-04T02:23:49;6.95;;;5.50;;
75924;SDS011;64604;44.752;37.674;2022-12-04T02:24:58;7.03;;;6.00;;
75924;SDS011;64604;44.752;37.674;2022-12-04T02:26:32;6.45;;;5.78;;
75924;SDS011;64604;44.752;37.674;2022-12-04T02:27:52;7.05;;;5.75;;
75924;SDS011;64604;44.752;37.674;2022-12-04T02:29:33;7.22;;;5.68;;
75924;SDS011;64604;44.752;37.674;2022-12-04T02:30:43;9.75;;;6.15;;
75924;SDS011;64604;44.752;37.674;2022-12-04T02:31:51;7.47;;;6.03;;
75924;SDS011;64604;44.752;37.674;2022-12-04T02:34:22;6.28;;;5.50;;
75924;SDS011;64604;44.752;37.674;2022-12-04T02:35:35;6.90;;;4.97;;
75924;SDS011;64604;44.752;37.674;2022-12-04T02:36:56;6.03;;;5.25;;
75924;SDS011;64604;44.752;37.674;2022-12-04T02:38:05;6.28;;;5.10;;
75924;SDS011;64604;44.752;37.674;2022-12-04T02:39:21;5.32;;;4.82;;
75924;SDS011;64604;44.752;37.674;2022-12-04T02:40:28;4.93;;;4.43;;
75924;SDS011;64604;44.752;37.674;2022-12-04T02:41:41;5.97;;;5.00;;
75924;SDS011;64604;44.752;37.674;2022-12-04T02:42:57;5.47;;;4.70;;
75924;SDS011;64604;44.752;37.674;2022-12-04T02:45:26;5.28;;;4.50;;
75924;SDS011;64604;44.752;37.674;2022-12-04T02:46:35;6.20;;;4.72;;
75924;SDS011;64604;44.752;37.674;2022-12-04T02:47:40;5.88;;;4.65;;
75924;SDS011;64604;44.752;37.674;2022-12-04T02:48:43;5.22;;;4.45;;
75924;SDS011;64604;44.752;37.674;2022-12-04T02:49:52;6.57;;;5.30;;
75924;SDS011;64604;44.752;37.674;2022-12-04T02:51:02;5.78;;;4.78;;
75924;SDS011;64604;44.752;37.674;2022-12-04T02:52:08;7.68;;;5.60;;
75924;SDS011;64604;44.752;37.674;2022-12-04T02:53:24;5.97;;;5.38;;
75924;SDS011;64604;44.752;37.674;2022-12-04T02:54:31;6.32;;;4.97;;
75924;SDS011;64604;44.752;37.674;2022-12-04T02:55:42;5.72;;;5.13;;
75924;SDS011;64604;44.752;37.674;2022-12-04T02:56:48;5.50;;;4.88;;
75924;SDS011;64604;44.752;37.674;2022-12-04T02:57:52;5.80;;;4.85;;
75924;SDS011;64604;44.752;37.674;2022-12-04T02:58:59;5.60;;;4.97;;
75924;SDS011;64604;44.752;37.674;2022-12-04T03:00:04;5.13;;;4.63;;
75924;SDS011;64604;44.752;37.674;2022-12-04T03:01:09;5.55;;;4.80;;
75924;SDS011;64604;44.752;37.674;2022-12-04T03:02:41;6.05;;;4.78;;
75924;SDS011;64604;44.752;37.674;2022-12-04T03:03:54;5.55;;;5.00;;
75924;SDS011;64604;44.752;37.674;2022-12-04T03:05:02;5.70;;;5.10;;
75924;SDS011;64604;44.752;37.674;2022-12-04T03:06:09;5.88;;;5.28;;
75924;SDS011;64604;44.752;37.674;2022-12-04T03:07:21;5.25;;;4.75;;
75924;SDS011;64604;44.752;37.674;2022-12-04T03:08:33;6.07;;;5.05;;
75924;SDS011;64604;44.752;37.674;2022-12-04T03:09:43;6.82;;;5.10;;
75924;SDS011;64604;44.752;37.674;2022-12-04T03:10:48;6.03;;;5.25;;
75924;SDS011;64604;44.752;37.674;2022-12-04T03:12:06;6.43;;;5.50;;
75924;SDS011;64604;44.752;37.674;2022-12-04T03:13:23;5.90;;;5.30;;
75924;SDS011;64604;44.752;37.674;2022-12-04T03:15:53;5.63;;;5.00;;
75924;SDS011;64604;44.752;37.674;2022-12-04T03:16:59;6.45;;;5.15;;
75924;SDS011;64604;44.752;37.674;2022-12-04T03:19:22;6.00;;;5.43;;
75924;SDS011;64604;44.752;37.674;2022-12-04T03:20:27;6.95;;;5.32;;
75924;SDS011;64604;44.752;37.674;2022-12-04T03:21:34;6.15;;;5.53;;
75924;SDS011;64604;44.752;37.674;2022-12-04T03:22:39;6.78;;;5.93;;
75924;SDS011;64604;44.752;37.674;2022-12-04T03:23:43;6.63;;;5.93;;
75924;SDS011;64604;44.752;37.674;2022-12-04T03:24:53;7.10;;;6.07;;
75924;SDS011;64604;44.752;37.674;2022-12-04T03:26:00;6.93;;;6.10;;
75924;SDS011;64604;44.752;37.674;2022-12-04T03:27:13;7.28;;;5.70;;
75924;SDS011;64604;44.752;37.674;2022-12-04T03:28:20;7.75;;;5.95;;
75924;SDS011;64604;44.752;37.674;2022-12-04T03:29:37;8.30;;;6.18;;
75924;SDS011;64604;44.752;37.674;2022-12-04T03:30:48;7.28;;;6.43;;
75924;SDS011;64604;44.752;37.674;2022-12-04T03:32:10;7.82;;;6.18;;
75924;SDS011;64604;44.752;37.674;2022-12-04T03:33:16;6.80;;;5.90;;
75924;SDS011;64604;44.752;37.674;2022-12-04T03:34:25;7.90;;;5.97;;
75924;SDS011;64604;44.752;37.674;2022-12-04T03:36:52;7.38;;;6.57;;
75924;SDS011;64604;44.752;37.674;2022-12-04T03:38:02;7.70;;;6.68;;
75924;SDS011;64604;44.752;37.674;2022-12-04T03:40:25;7.55;;;6.13;;
75924;SDS011;64604;44.752;37.674;2022-12-04T03:42:59;7.30;;;5.65;;
75924;SDS011;64604;44.752;37.674;2022-12-04T03:44:17;10.07;;;6.32;;
75924;SDS011;64604;44.752;37.674;2022-12-04T03:45:24;8.30;;;6.40;;
75924;SDS011;64604;44.752;37.674;2022-12-04T03:46:58;7.97;;;6.10;;
75924;SDS011;64604;44.752;37.674;2022-12-04T03:48:10;9.23;;;6.30;;
75924;SDS011;64604;44.752;37.674;2022-12-04T03:49:43;7.95;;;6.32;;
75924;SDS011;64604;44.752;37.674;2022-12-04T03:51:58;7.50;;;6.68;;
75924;SDS011;64604;44.752;37.674;2022-12-04T03:53:11;8.88;;;6.93;;
75924;SDS011;64604;44.752;37.674;2022-12-04T03:54:22;7.55;;;6.13;;
75924;SDS011;64604;44.752;37.674;2022-12-04T03:56:58;9.32;;;6.30;;
75924;SDS011;64604;44.752;37.674;2022-12-04T03:58:04;8.57;;;6.35;;
75924;SDS011;64604;44.752;37.674;2022-12-04T03:59:11;6.60;;;5.97;;
75924;SDS011;64604;44.752;37.674;2022-12-04T04:00:24;8.55;;;6.68;;
75924;SDS011;64604;44.752;37.674;2022-12-04T04:01:32;8.02;;;6.45;;
75924;SDS011;64604;44.752;37.674;2022-12-04T04:02:46;7.68;;;6.75;;
75924;SDS011;64604;44.752;37.674;2022-12-04T04:03:52;8.25;;;7.00;;
75924;SDS011;64604;44.752;37.674;2022-12-04T04:04:56;7.97;;;6.50;;
75924;SDS011;64604;44.752;37.674;2022-12-04T04:06:08;7.78;;;6.43;;
75924;SDS011;64604;44.752;37.674;2022-12-04T04:08:54;9.05;;;6.40;;
75924;SDS011;64604;44.752;37.674;2022-12-04T04:10:00;7.32;;;6.55;;
75924;SDS011;64604;44.752;37.674;2022-12-04T04:11:07;7.57;;;6.65;;
75924;SDS011;64604;44.752;37.674;2022-12-04T04:12:19;9.50;;;7.38;;
75924;SDS011;64604;44.752;37.674;2022-12-04T04:13:27;10.43;;;6.90;;
75924;SDS011;64604;44.752;37.674;2022-12-04T04:14:57;7.68;;;6.10;;
75924;SDS011;64604;44.752;37.674;2022-12-04T04:16:32;7.20;;;6.20;;
75924;SDS011;64604;44.752;37.674;2022-12-04T04:17:55;7.20;;;6.32;;
75924;SDS011;64604;44.752;37.674;2022-12-04T04:19:34;7.55;;;6.13;;
75924;SDS011;64604;44.752;37.674;2022-12-04T04:20:57;8.63;;;5.97;;
75924;SDS011;64604;44.752;37.674;2022-12-04T04:22:18;6.60;;;5.90;;
75924;SDS011;64604;44.752;37.674;2022-12-04T04:23:40;7.25;;;6.32;;
75924;SDS011;64604;44.752;37.674;2022-12-04T04:25:15;7.22;;;5.78;;
75924;SDS011;64604;44.752;37.674;2022-12-04T04:26:20;7.80;;;6.30;;
75924;SDS011;64604;44.752;37.674;2022-12-04T04:27:23;8.57;;;7.22;;
75924;SDS011;64604;44.752;37.674;2022-12-04T04:29:33;9.00;;;6.97;;
75924;SDS011;64604;44.752;37.674;2022-12-04T04:30:35;8.57;;;7.00;;
75924;SDS011;64604;44.752;37.674;2022-12-04T04:31:46;9.23;;;6.80;;
75924;SDS011;64604;44.752;37.674;2022-12-04T04:33:15;9.30;;;6.88;;
75924;SDS011;64604;44.752;37.674;2022-12-04T04:38:51;7.90;;;6.85;;
75924;SDS011;64604;44.752;37.674;2022-12-04T04:41:40;10.63;;;7.88;;
75924;SDS011;64604;44.752;37.674;2022-12-04T04:42:48;7.82;;;7.00;;
75924;SDS011;64604;44.752;37.674;2022-12-04T04:43:56;9.48;;;8.13;;
75924;SDS011;64604;44.752;37.674;2022-12-04T04:45:11;10.95;;;8.95;;
75924;SDS011;64604;44.752;37.674;2022-12-04T04:46:22;9.35;;;7.72;;
75924;SDS011;64604;44.752;37.674;2022-12-04T04:49:04;9.05;;;7.38;;
75924;SDS011;64604;44.752;37.674;2022-12-04T04:50:09;7.78;;;6.95;;
75924;SDS011;64604;44.752;37.674;2022-12-04T04:51:12;7.60;;;6.75;;
75924;SDS011;64604;44.752;37.674;2022-12-04T04:52:14;10.38;;;7.50;;
75924;SDS011;64604;44.752;37.674;2022-12-04T04:53:19;9.55;;;7.90;;
75924;SDS011;64604;44.752;37.674;2022-12-04T04:54:24;8.93;;;6.53;;
75924;SDS011;64604;44.752;37.674;2022-12-04T04:55:27;7.78;;;6.95;;
75924;SDS011;64604;44.752;37.674;2022-12-04T04:56:43;8.50;;;7.03;;
75924;SDS011;64604;44.752;37.674;2022-12-04T04:57:46;8.73;;;7.00;;
75924;SDS011;64604;44.752;37.674;2022-12-04T04:58:47;9.68;;;7.30;;
75924;SDS011;64604;44.752;37.674;2022-12-04T04:59:49;8.15;;;7.35;;
75924;SDS011;64604;44.752;37.674;2022-12-04T05:00:55;8.02;;;6.97;;
75924;SDS011;64604;44.752;37.674;2022-12-04T05:01:59;8.95;;;6.90;;
75924;SDS011;64604;44.752;37.674;2022-12-04T05:03:00;7.13;;;6.43;;
75924;SDS011;64604;44.752;37.674;2022-12-04T05:04:02;9.48;;;7.22;;
75924;SDS011;64604;44.752;37.674;2022-12-04T05:05:05;7.72;;;6.90;;
75924;SDS011;64604;44.752;37.674;2022-12-04T05:06:06;8.40;;;6.40;;
75924;SDS011;64604;44.752;37.674;2022-12-04T05:07:08;9.20;;;6.95;;
75924;SDS011;64604;44.752;37.674;2022-12-04T05:08:09;8.13;;;6.75;;
75924;SDS011;64604;44.752;37.674;2022-12-04T05:09:11;8.35;;;7.38;;
75924;SDS011;64604;44.752;37.674;2022-12-04T05:10:12;9.55;;;6.85;;
75924;SDS011;64604;44.752;37.674;2022-12-04T05:11:14;8.35;;;7.13;;
75924;SDS011;64604;44.752;37.674;2022-12-04T05:12:16;8.70;;;7.22;;
75924;SDS011;64604;44.752;37.674;2022-12-04T05:13:18;8.20;;;6.90;;
75924;SDS011;64604;44.752;37.674;2022-12-04T05:14:20;8.68;;;7.65;;
75924;SDS011;64604;44.752;37.674;2022-12-04T05:15:21;9.68;;;7.55;;
75924;SDS011;64604;44.752;37.674;2022-12-04T05:16:22;9.10;;;7.57;;
75924;SDS011;64604;44.752;37.674;2022-12-04T05:17:24;8.57;;;7.15;;
75924;SDS011;64604;44.752;37.674;2022-12-04T05:18:25;8.98;;;7.10;;
75924;SDS011;64604;44.752;37.674;2022-12-04T05:19:27;11.07;;;8.00;;
75924;SDS011;64604;44.752;37.674;2022-12-04T05:20:51;9.13;;;7.75;;
75924;SDS011;64604;44.752;37.674;2022-12-04T05:21:53;10.50;;;8.02;;
75924;SDS011;64604;44.752;37.674;2022-12-04T05:22:54;10.38;;;8.00;;
75924;SDS011;64604;44.752;37.674;2022-12-04T05:23:55;11.40;;;7.85;;
75924;SDS011;64604;44.752;37.674;2022-12-04T05:24:57;8.05;;;7.15;;
75924;SDS011;64604;44.752;37.674;2022-12-04T05:25:59;9.27;;;7.35;;
75924;SDS011;64604;44.752;37.674;2022-12-04T05:27:02;8.63;;;7.18;;
75924;SDS011;64604;44.752;37.674;2022-12-04T05:28:03;10.43;;;6.68;;
75924;SDS011;64604;44.752;37.674;2022-12-04T05:29:05;9.45;;;7.25;;
75924;SDS011;64604;44.752;37.674;2022-12-04T05:30:06;8.82;;;7.85;;
75924;SDS011;64604;44.752;37.674;2022-12-04T05:31:09;8.95;;;7.38;;
75924;SDS011;64604;44.752;37.674;2022-12-04T05:32:11;10.07;;;8.18;;
75924;SDS011;64604;44.752;37.674;2022-12-04T05:33:12;11.77;;;7.90;;
75924;SDS011;64604;44.752;37.674;2022-12-04T05:34:13;9.45;;;8.00;;
75924;SDS011;64604;44.752;37.674;2022-12-04T05:35:15;11.63;;;9.00;;
75924;SDS011;64604;44.752;37.674;2022-12-04T05:36:17;10.13;;;8.15;;
75924;SDS011;64604;44.752;37.674;2022-12-04T05:37:18;10.73;;;8.00;;
75924;SDS011;64604;44.752;37.674;2022-12-04T05:38:20;12.10;;;9.02;;
75924;SDS011;64604;44.752;37.674;2022-12-04T05:39:22;9.43;;;7.60;;
75924;SDS011;64604;44.752;37.674;2022-12-04T05:40:23;11.23;;;8.95;;
75924;SDS011;64604;44.752;37.674;2022-12-04T05:41:24;13.40;;;8.55;;
75924;SDS011;64604;44.752;37.674;2022-12-04T05:42:26;9.85;;;7.63;;
75924;SDS011;64604;44.752;37.674;2022-12-04T05:43:27;12.15;;;8.68;;
75924;SDS011;64604;44.752;37.674;2022-12-04T05:44:29;10.23;;;8.07;;
75924;SDS011;64604;44.752;37.674;2022-12-04T05:45:30;10.65;;;8.30;;
75924;SDS011;64604;44.752;37.674;2022-12-04T05:46:31;11.13;;;9.27;;
75924;SDS011;64604;44.752;37.674;2022-12-04T05:47:39;12.05;;;8.65;;
75924;SDS011;64604;44.752;37.674;2022-12-04T05:48:42;15.25;;;9.07;;
75924;SDS011;64604;44.752;37.674;2022-12-04T05:49:43;10.50;;;8.65;;
75924;SDS011;64604;44.752;37.674;2022-12-04T05:50:44;13.00;;;9.00;;
75924;SDS011;64604;44.752;37.674;2022-12-04T05:51:46;11.98;;;8.50;;
75924;SDS011;64604;44.752;37.674;2022-12-04T05:52:49;11.75;;;8.45;;
75924;SDS011;64604;44.752;37.674;2022-12-04T05:53:50;12.45;;;8.23;;
75924;SDS011;64604;44.752;37.674;2022-12-04T05:54:52;11.60;;;7.75;;
75924;SDS011;64604;44.752;37.674;2022-12-04T05:55:57;10.68;;;8.25;;
75924;SDS011;64604;44.752;37.674;2022-12-04T05:57:00;10.43;;;7.88;;
75924;SDS011;64604;44.752;37.674;2022-12-04T05:58:01;10.68;;;8.20;;
75924;SDS011;64604;44.752;37.674;2022-12-04T05:59:03;11.35;;;8.57;;
75924;SDS011;64604;44.752;37.674;2022-12-04T06:00:05;9.55;;;7.43;;
75924;SDS011;64604;44.752;37.674;2022-12-04T06:01:16;9.70;;;7.97;;
75924;SDS011;64604;44.752;37.674;2022-12-04T06:02:19;10.23;;;7.95;;
75924;SDS011;64604;44.752;37.674;2022-12-04T06:03:21;9.80;;;8.10;;
75924;SDS011;64604;44.752;37.674;2022-12-04T06:04:23;9.95;;;8.05;;
75924;SDS011;64604;44.752;37.674;2022-12-04T06:05:25;9.02;;;7.88;;
75924;SDS011;64604;44.752;37.674;2022-12-04T06:06:26;11.63;;;8.40;;
75924;SDS011;64604;44.752;37.674;2022-12-04T06:07:28;7.85;;;7.05;;
75924;SDS011;64604;44.752;37.674;2022-12-04T06:08:30;9.13;;;7.13;;
75924;SDS011;64604;44.752;37.674;2022-12-04T06:09:31;9.57;;;7.05;;
75924;SDS011;64604;44.752;37.674;2022-12-04T06:10:33;9.63;;;7.35;;
75924;SDS011;64604;44.752;37.674;2022-12-04T06:11:35;9.52;;;7.78;;
75924;SDS011;64604;44.752;37.674;2022-12-04T06:12:37;9.35;;;7.50;;
75924;SDS011;64604;44.752;37.674;2022-12-04T06:13:39;8.63;;;7.45;;
75924;SDS011;64604;44.752;37.674;2022-12-04T06:14:42;12.82;;;7.68;;
75924;SDS011;64604;44.752;37.674;2022-12-04T06:15:43;9.10;;;7.10;;
75924;SDS011;64604;44.752;37.674;2022-12-04T06:16:45;9.68;;;7.47;;
75924;SDS011;64604;44.752;37.674;2022-12-04T06:17:46;8.82;;;7.50;;
75924;SDS011;64604;44.752;37.674;2022-12-04T06:18:51;10.55;;;7.53;;
75924;SDS011;64604;44.752;37.674;2022-12-04T06:19:54;9.13;;;7.22;;
75924;SDS011;64604;44.752;37.674;2022-12-04T06:20:58;9.70;;;7.40;;
75924;SDS011;64604;44.752;37.674;2022-12-04T06:21:59;8.70;;;7.55;;
75924;SDS011;64604;44.752;37.674;2022-12-04T06:23:01;9.65;;;7.25;;
75924;SDS011;64604;44.752;37.674;2022-12-04T06:24:02;12.15;;;8.15;;
75924;SDS011;64604;44.752;37.674;2022-12-04T06:25:05;10.40;;;7.47;;
75924;SDS011;64604;44.752;37.674;2022-12-04T06:26:07;8.40;;;7.30;;
75924;SDS011;64604;44.752;37.674;2022-12-04T06:27:09;10.27;;;8.00;;
75924;SDS011;64604;44.752;37.674;2022-12-04T06:28:10;9.40;;;7.70;;
75924;SDS011;64604;44.752;37.674;2022-12-04T06:29:12;9.88;;;7.70;;
75924;SDS011;64604;44.752;37.674;2022-12-04T06:30:13;10.73;;;7.80;;
75924;SDS011;64604;44.752;37.674;2022-12-04T06:31:15;9.93;;;7.60;;
75924;SDS011;64604;44.752;37.674;2022-12-04T06:32:18;9.13;;;7.85;;
75924;SDS011;64604;44.752;37.674;2022-12-04T06:33:19;9.65;;;7.63;;
75924;SDS011;64604;44.752;37.674;2022-12-04T06:34:21;9.77;;;8.32;;
75924;SDS011;64604;44.752;37.674;2022-12-04T06:35:22;10.00;;;8.05;;
75924;SDS011;64604;44.752;37.674;2022-12-04T06:36:24;8.93;;;7.38;;
75924;SDS011;64604;44.752;37.674;2022-12-04T06:37:25;10.18;;;8.25;;
75924;SDS011;64604;44.752;37.674;2022-12-04T06:38:27;10.43;;;8.10;;
75924;SDS011;64604;44.752;37.674;2022-12-04T06:39:29;10.48;;;8.65;;
75924;SDS011;64604;44.752;37.674;2022-12-04T06:40:30;10.35;;;8.23;;
75924;SDS011;64604;44.752;37.674;2022-12-04T06:41:32;11.32;;;7.82;;
75924;SDS011;64604;44.752;37.674;2022-12-04T06:42:33;9.70;;;8.60;;
75924;SDS011;64604;44.752;37.674;2022-12-04T06:43:34;10.27;;;8.38;;
75924;SDS011;64604;44.752;37.674;2022-12-04T06:44:36;9.63;;;8.05;;
75924;SDS011;64604;44.752;37.674;2022-12-04T06:45:37;9.75;;;8.52;;
75924;SDS011;64604;44.752;37.674;2022-12-04T06:46:39;12.48;;;9.00;;
75924;SDS011;64604;44.752;37.674;2022-12-04T06:47:40;11.52;;;8.77;;
75924;SDS011;64604;44.752;37.674;2022-12-04T06:48:42;9.25;;;7.80;;
75924;SDS011;64604;44.752;37.674;2022-12-04T06:49:43;10.30;;;8.95;;
75924;SDS011;64604;44.752;37.674;2022-12-04T06:50:45;10.38;;;8.05;;
75924;SDS011;64604;44.752;37.674;2022-12-04T06:51:47;11.32;;;8.23;;
75924;SDS011;64604;44.752;37.674;2022-12-04T06:52:48;9.93;;;8.00;;
75924;SDS011;64604;44.752;37.674;2022-12-04T06:53:49;10.95;;;8.48;;
75924;SDS011;64604;44.752;37.674;2022-12-04T06:54:51;10.55;;;8.02;;
75924;SDS011;64604;44.752;37.674;2022-12-04T06:55:52;8.65;;;7.65;;
75924;SDS011;64604;44.752;37.674;2022-12-04T06:56:54;9.18;;;7.53;;
75924;SDS011;64604;44.752;37.674;2022-12-04T06:57:56;9.25;;;7.18;;